createdAt,value
2018-01-21T00:01:19.272Z,-0.40
2018-01-21T00:03:47.558Z,-0.50
2018-01-21T00:06:15.866Z,-0.50
2018-01-21T00:08:44.154Z,-0.50
2018-01-21T00:11:12.489Z,-0.50
2018-01-21T00:13:41.636Z,-0.50
2018-01-21T00:16:09.935Z,-0.50
2018-01-21T00:18:38.224Z,-0.50
2018-01-21T00:21:06.609Z,-0.60
2018-01-21T00:23:34.996Z,-0.60
2018-01-21T00:26:03.310Z,-0.60
2018-01-21T00:28:31.663Z,-0.60
2018-01-21T00:31:00.011Z,-0.60
2018-01-21T00:33:28.301Z,-0.70
2018-01-21T00:35:56.610Z,-0.70
2018-01-21T00:38:25.674Z,-0.70
2018-01-21T00:40:53.968Z,-0.80
2018-01-21T00:43:22.291Z,-0.80
2018-01-21T00:45:51.350Z,-0.90
2018-01-21T00:48:19.638Z,-0.90
2018-01-21T00:50:47.930Z,-0.90
2018-01-21T00:53:16.257Z,-0.90
2018-01-21T00:55:44.575Z,-0.90
2018-01-21T00:58:12.871Z,-0.90
2018-01-21T01:00:42.178Z,-0.90
2018-01-21T01:03:10.474Z,-0.90
2018-01-21T01:05:38.778Z,-0.90
2018-01-21T01:08:07.120Z,-0.90
2018-01-21T01:10:35.447Z,-1.00
2018-01-21T01:13:04.547Z,-0.90
2018-01-21T01:15:33.061Z,-0.90
2018-01-21T01:18:01.399Z,-0.90
2018-01-21T01:20:29.698Z,-1.00
2018-01-21T01:22:58.034Z,-1.00
2018-01-21T01:25:26.379Z,-1.00
2018-01-21T01:27:54.671Z,-1.10
2018-01-21T01:30:22.967Z,-1.10
2018-01-21T01:32:51.254Z,-1.00
2018-01-21T01:35:20.315Z,-1.00
2018-01-21T01:37:48.637Z,-1.00
2018-01-21T01:40:16.930Z,-1.00
2018-01-21T01:42:45.254Z,-1.10
2018-01-21T01:45:13.596Z,-1.00
2018-01-21T01:47:41.889Z,-1.00
2018-01-21T01:50:10.173Z,-1.10
2018-01-21T01:52:38.484Z,-1.00
2018-01-21T01:55:06.806Z,-1.00
2018-01-21T01:57:35.107Z,-1.00
2018-01-21T02:00:03.455Z,-1.00
2018-01-21T02:02:31.761Z,-1.00
2018-01-21T02:05:00.841Z,-1.00
2018-01-21T02:07:29.251Z,-1.10
2018-01-21T02:09:57.551Z,-1.00
2018-01-21T02:12:26.607Z,-1.10
2018-01-21T02:14:54.894Z,-1.10
2018-01-21T02:17:23.202Z,-1.00
2018-01-21T02:19:51.523Z,-1.00
2018-01-21T02:22:19.883Z,-1.10
2018-01-21T02:24:48.182Z,-1.10
2018-01-21T02:27:16.472Z,-1.10
2018-01-21T02:29:44.759Z,-1.10
2018-01-21T02:32:13.075Z,-1.10
2018-01-21T02:34:42.138Z,-1.10
2018-01-21T02:37:10.431Z,-1.10
2018-01-21T02:39:38.720Z,-1.20
2018-01-21T02:42:07.007Z,-1.10
2018-01-21T02:44:35.383Z,-1.10
2018-01-21T02:47:03.723Z,-1.20
2018-01-21T02:49:32.066Z,-1.10
2018-01-21T02:52:00.352Z,-1.10
2018-01-21T02:54:28.634Z,-1.20
2018-01-21T02:56:56.926Z,-1.20
2018-01-21T02:59:25.278Z,-1.10
2018-01-21T03:01:53.579Z,-1.20
2018-01-21T03:04:22.777Z,-1.20
2018-01-21T03:06:51.076Z,-1.20
2018-01-21T03:09:19.365Z,-1.20
2018-01-21T03:11:47.650Z,-1.20
2018-01-21T03:14:15.993Z,-1.10
2018-01-21T03:16:44.334Z,-1.10
2018-01-21T03:19:12.626Z,-1.10
2018-01-21T03:21:41.702Z,-1.10
2018-01-21T03:24:09.980Z,-1.10
2018-01-21T03:26:38.307Z,-1.10
2018-01-21T03:29:06.808Z,-1.10
2018-01-21T03:31:35.108Z,-1.10
2018-01-21T03:34:04.184Z,-1.20
2018-01-21T03:36:32.504Z,-1.20
2018-01-21T03:39:01.573Z,-1.20
2018-01-21T03:41:29.901Z,-1.20
2018-01-21T03:43:58.967Z,-1.10
2018-01-21T03:46:27.272Z,-1.10
2018-01-21T03:48:55.567Z,-1.10
2018-01-21T03:51:23.874Z,-1.00
2018-01-21T03:53:52.174Z,-1.10
2018-01-21T03:56:21.222Z,-1.10
2018-01-21T03:58:49.515Z,-1.10
2018-01-21T04:01:17.846Z,-1.10
2018-01-21T04:03:46.182Z,-1.10
2018-01-21T04:06:14.467Z,-1.10
2018-01-21T04:08:42.768Z,-1.10
2018-01-21T04:11:11.071Z,-1.00
2018-01-21T04:13:39.490Z,-1.00
2018-01-21T04:16:07.817Z,-1.00
2018-01-21T04:18:36.883Z,-1.00
2018-01-21T04:21:05.227Z,-1.00
2018-01-21T04:23:33.564Z,-1.00
2018-01-21T04:26:01.882Z,-1.00
2018-01-21T04:28:30.206Z,-1.00
2018-01-21T04:30:58.522Z,-1.00
2018-01-21T04:33:27.061Z,-1.00
2018-01-21T04:35:56.203Z,-1.00
2018-01-21T04:38:24.577Z,-1.00
2018-01-21T04:40:52.918Z,-1.00
2018-01-21T04:43:21.243Z,-1.00
2018-01-21T04:45:50.320Z,-1.00
2018-01-21T04:48:18.631Z,-1.10
2018-01-21T04:50:46.955Z,-1.10
2018-01-21T04:53:15.250Z,-1.10
2018-01-21T04:55:43.619Z,-1.00
2018-01-21T04:58:12.687Z,-1.00
2018-01-21T05:00:41.045Z,-1.00
2018-01-21T05:03:09.387Z,-1.00
2018-01-21T05:05:37.681Z,-1.10
2018-01-21T05:08:05.987Z,-1.10
2018-01-21T05:10:35.143Z,-1.10
2018-01-21T05:13:03.487Z,-1.10
2018-01-21T05:15:32.565Z,-1.10
2018-01-21T05:18:00.974Z,-1.10
2018-01-21T05:20:29.275Z,-1.10
2018-01-21T05:22:58.342Z,-1.10
2018-01-21T05:25:26.674Z,-1.20
2018-01-21T05:27:55.790Z,-1.10
2018-01-21T05:30:24.862Z,-1.10
2018-01-21T05:32:53.153Z,-1.10
2018-01-21T05:35:21.458Z,-1.10
2018-01-21T05:37:49.790Z,-1.10
2018-01-21T05:40:18.121Z,-1.20
2018-01-21T05:42:46.446Z,-1.20
2018-01-21T05:45:15.502Z,-1.20
2018-01-21T05:47:43.797Z,-1.20
2018-01-21T05:50:12.135Z,-1.20
2018-01-21T05:52:40.494Z,-1.20
2018-01-21T05:55:08.802Z,-1.20
2018-01-21T05:57:37.138Z,-1.20
2018-01-21T06:00:06.280Z,-1.20
2018-01-21T06:02:34.635Z,-1.20
2018-01-21T06:05:02.975Z,-1.10
2018-01-21T06:07:31.282Z,-1.10
2018-01-21T06:10:00.366Z,-1.20
2018-01-21T06:12:28.667Z,-1.20
2018-01-21T06:14:56.994Z,-1.10
2018-01-21T06:17:25.294Z,-1.10
2018-01-21T06:19:53.584Z,-1.10
2018-01-21T06:22:21.894Z,-1.10
2018-01-21T06:24:50.190Z,-1.20
2018-01-21T06:27:18.510Z,-1.10
2018-01-21T06:29:46.899Z,-1.10
2018-01-21T06:32:15.190Z,-1.10
2018-01-21T06:34:43.490Z,-1.20
2018-01-21T06:37:12.578Z,-1.20
2018-01-21T06:39:40.919Z,-1.20
2018-01-21T06:42:09.210Z,-1.20
2018-01-21T06:44:37.522Z,-1.20
2018-01-21T06:47:05.884Z,-1.20
2018-01-21T06:49:34.241Z,-1.20
2018-01-21T06:52:02.620Z,-1.20
2018-01-21T06:54:30.915Z,-1.10
2018-01-21T06:56:59.222Z,-1.10
2018-01-21T06:59:28.313Z,-1.10
2018-01-21T07:01:56.662Z,-1.20
2018-01-21T07:04:25.251Z,-1.10
2018-01-21T07:06:53.550Z,-1.10
2018-01-21T07:09:21.865Z,-1.10
2018-01-21T07:11:50.185Z,-1.10
2018-01-21T07:14:18.515Z,-1.10
2018-01-21T07:16:46.808Z,-1.10
2018-01-21T07:19:15.109Z,-1.10
2018-01-21T07:21:43.444Z,-1.10
2018-01-21T07:24:11.753Z,-1.00
2018-01-21T07:26:40.851Z,-1.00
2018-01-21T07:29:09.150Z,-1.10
2018-01-21T07:31:38.267Z,-1.00
2018-01-21T07:34:06.655Z,-1.10
2018-01-21T07:36:35.866Z,-1.10
2018-01-21T07:39:04.962Z,-1.00
2018-01-21T07:41:33.321Z,-1.00
2018-01-21T07:44:01.645Z,-1.00
2018-01-21T07:46:30.021Z,-0.90
2018-01-21T07:48:58.322Z,-0.90
2018-01-21T07:51:26.610Z,-0.90
2018-01-21T07:53:55.696Z,-1.00
2018-01-21T07:56:24.030Z,-1.00
2018-01-21T07:58:53.114Z,-0.90
2018-01-21T08:01:21.402Z,-0.90
2018-01-21T08:03:49.685Z,-0.90
2018-01-21T08:06:18.009Z,-0.90
2018-01-21T08:08:47.060Z,-0.90
2018-01-21T08:11:15.395Z,-0.90
2018-01-21T08:13:44.481Z,-0.90
2018-01-21T08:16:12.763Z,-0.90
2018-01-21T08:18:41.075Z,-0.90
2018-01-21T08:21:09.362Z,-0.90
2018-01-21T08:23:37.703Z,-0.90
2018-01-21T08:26:06.003Z,-0.80
2018-01-21T08:28:34.340Z,-0.80
2018-01-21T08:31:02.629Z,-0.70
2018-01-21T08:33:31.709Z,-0.60
2018-01-21T08:36:05.564Z,-0.60
2018-01-21T08:38:39.480Z,-0.50
2018-01-21T08:41:13.503Z,-0.40
2018-01-21T08:43:41.807Z,-0.40
2018-01-21T08:46:10.955Z,-0.30
2018-01-21T08:48:39.332Z,-0.30
2018-01-21T08:51:07.661Z,-0.30
2018-01-21T08:53:35.958Z,-0.40
2018-01-21T08:56:04.274Z,-0.40
2018-01-21T08:58:33.415Z,-0.50
2018-01-21T09:01:01.723Z,-0.50
2018-01-21T09:03:30.008Z,-0.40
2018-01-21T09:05:58.334Z,-0.30
2018-01-21T09:08:26.635Z,-0.30
2018-01-21T09:10:54.974Z,-0.30
2018-01-21T09:13:23.293Z,-0.20
2018-01-21T09:15:51.584Z,-0.20
2018-01-21T09:18:19.871Z,0.00
2018-01-21T09:20:48.162Z,0.10
2018-01-21T09:23:16.485Z,0.20
2018-01-21T09:25:45.543Z,0.00
2018-01-21T09:28:13.879Z,0.00
2018-01-21T09:30:42.186Z,-0.10
2018-01-21T09:33:11.240Z,-0.30
2018-01-21T09:35:39.583Z,-0.30
2018-01-21T09:38:07.940Z,-0.30
2018-01-21T09:40:36.243Z,-0.30
2018-01-21T09:43:05.335Z,-0.30
2018-01-21T09:45:33.654Z,-0.30
2018-01-21T09:48:01.981Z,-0.20
2018-01-21T09:50:30.265Z,-0.20
2018-01-21T09:52:58.566Z,-0.20
2018-01-21T09:55:26.879Z,-0.20
2018-01-21T09:57:55.175Z,-0.30
2018-01-21T10:00:23.588Z,-0.20
2018-01-21T10:02:51.886Z,-0.10
2018-01-21T10:05:20.948Z,0.00
2018-01-21T10:07:49.239Z,0.00
2018-01-21T10:10:17.532Z,-0.10
2018-01-21T10:12:45.871Z,-0.10
2018-01-21T10:15:14.926Z,-0.20
2018-01-21T10:17:43.220Z,-0.30
2018-01-21T10:20:11.556Z,-0.30
2018-01-21T10:22:41.090Z,-0.20
2018-01-21T10:25:09.568Z,-0.20
2018-01-21T10:27:37.915Z,-0.20
2018-01-21T10:30:06.231Z,-0.10
2018-01-21T10:32:34.556Z,0.00
2018-01-21T10:35:03.595Z,0.00
2018-01-21T10:37:31.929Z,-0.10
2018-01-21T10:40:00.232Z,-0.10
2018-01-21T10:42:29.326Z,-0.10
2018-01-21T10:44:57.654Z,-0.10
2018-01-21T10:47:25.967Z,-0.10
2018-01-21T10:49:54.269Z,0.00
2018-01-21T10:52:22.566Z,-0.20
2018-01-21T10:54:50.881Z,-0.10
2018-01-21T10:57:19.218Z,-0.10
2018-01-21T10:59:47.523Z,-0.20
2018-01-21T11:02:15.812Z,-0.30
2018-01-21T11:04:44.094Z,-0.20
2018-01-21T11:07:12.427Z,-0.20
2018-01-21T11:09:40.858Z,-0.20
2018-01-21T11:12:09.215Z,-0.20
2018-01-21T11:14:37.557Z,-0.20
2018-01-21T11:17:05.930Z,-0.10
2018-01-21T11:19:34.226Z,0.00
2018-01-21T11:22:02.562Z,0.00
2018-01-21T11:24:30.839Z,0.00
2018-01-21T11:26:59.131Z,0.10
2018-01-21T11:29:27.458Z,0.10
2018-01-21T11:31:56.502Z,0.20
2018-01-21T11:34:24.828Z,0.10
2018-01-21T11:36:53.144Z,0.20
2018-01-21T11:39:22.220Z,0.10
2018-01-21T11:41:50.532Z,0.10
2018-01-21T11:44:18.822Z,0.10
2018-01-21T11:46:47.133Z,0.10
2018-01-21T11:49:16.204Z,0.20
2018-01-21T11:51:44.503Z,0.20
2018-01-21T11:54:12.846Z,0.20
2018-01-21T11:56:41.142Z,0.10
2018-01-21T11:59:09.458Z,0.10
2018-01-21T12:01:37.766Z,0.10
2018-01-21T12:04:06.081Z,0.10
2018-01-21T12:06:34.415Z,0.00
2018-01-21T12:09:02.782Z,0.00
2018-01-21T12:11:31.261Z,0.00
2018-01-21T12:13:59.607Z,-0.10
2018-01-21T12:16:27.892Z,0.00
2018-01-21T12:18:56.244Z,0.00
2018-01-21T12:21:24.538Z,0.10
2018-01-21T12:23:52.828Z,0.10
2018-01-21T12:26:21.112Z,0.20
2018-01-21T12:28:49.431Z,0.20
2018-01-21T12:31:17.755Z,0.20
2018-01-21T12:33:46.052Z,0.30
2018-01-21T12:36:14.378Z,0.40
2018-01-21T12:38:42.678Z,0.30
2018-01-21T12:41:10.985Z,0.30
2018-01-21T12:43:39.314Z,0.40
2018-01-21T12:46:07.631Z,0.40
2018-01-21T12:48:35.938Z,0.40
2018-01-21T12:51:04.274Z,0.30
2018-01-21T12:53:32.606Z,0.30
2018-01-21T12:56:00.966Z,0.40
2018-01-21T12:58:29.266Z,0.50
2018-01-21T13:00:58.315Z,0.60
2018-01-21T13:03:26.598Z,0.60
2018-01-21T13:05:54.884Z,0.70
2018-01-21T13:08:23.191Z,0.80
2018-01-21T13:10:51.504Z,0.70
2018-01-21T13:13:19.785Z,0.60
2018-01-21T13:15:48.068Z,0.50
2018-01-21T13:18:17.130Z,0.40
2018-01-21T13:20:46.219Z,0.50
2018-01-21T13:23:14.511Z,0.40
2018-01-21T13:25:42.795Z,0.50
2018-01-21T13:28:11.107Z,0.50
2018-01-21T13:30:40.174Z,0.40
2018-01-21T13:33:08.502Z,0.40
2018-01-21T13:35:37.561Z,0.40
2018-01-21T13:38:05.857Z,0.40
2018-01-21T13:40:34.165Z,0.40
2018-01-21T13:43:02.443Z,0.50
2018-01-21T13:45:30.772Z,0.60
2018-01-21T13:47:59.894Z,0.60
2018-01-21T13:50:28.259Z,0.60
2018-01-21T13:52:56.570Z,0.60
2018-01-21T13:55:25.660Z,0.60
2018-01-21T13:57:54.761Z,0.40
2018-01-21T14:00:23.043Z,0.40
2018-01-21T14:02:51.328Z,0.40
2018-01-21T14:05:19.634Z,0.40
2018-01-21T14:07:47.918Z,0.40
2018-01-21T14:10:16.226Z,0.40
2018-01-21T14:12:45.345Z,0.50
2018-01-21T14:15:13.615Z,0.50
2018-01-21T14:17:41.925Z,0.50
2018-01-21T14:20:10.272Z,0.40
2018-01-21T14:22:38.608Z,0.30
2018-01-21T14:25:07.660Z,0.20
2018-01-21T14:27:36.033Z,0.20
2018-01-21T14:30:04.380Z,0.10
2018-01-21T14:32:33.470Z,0.20
2018-01-21T14:35:01.866Z,0.20
2018-01-21T14:37:30.161Z,0.10
2018-01-21T14:39:58.467Z,0.10
2018-01-21T14:42:27.578Z,0.10
2018-01-21T14:44:56.691Z,0.00
2018-01-21T14:47:25.804Z,0.00
2018-01-21T14:49:54.946Z,0.00
2018-01-21T14:52:23.295Z,0.00
2018-01-21T14:54:52.407Z,-0.10
2018-01-21T14:57:20.789Z,-0.20
2018-01-21T14:59:49.917Z,-0.30
2018-01-21T15:02:18.219Z,-0.30
2018-01-21T15:04:46.523Z,-0.30
2018-01-21T15:07:14.970Z,-0.30
2018-01-21T15:09:44.224Z,-0.30
2018-01-21T15:12:12.578Z,-0.30
2018-01-21T15:14:41.658Z,-0.20
2018-01-21T15:17:09.962Z,-0.30
2018-01-21T15:19:38.700Z,-0.30
2018-01-21T15:22:07.008Z,-0.20
2018-01-21T15:24:35.453Z,-0.30
2018-01-21T15:27:03.819Z,-0.30
2018-01-21T15:29:32.304Z,-0.30
2018-01-21T15:32:00.626Z,-0.30
2018-01-21T15:34:28.926Z,-0.40
2018-01-21T15:36:57.255Z,-0.40
2018-01-21T15:39:25.542Z,-0.40
2018-01-21T15:41:53.830Z,-0.50
2018-01-21T15:44:22.135Z,-0.50
2018-01-21T15:46:50.457Z,-0.50
2018-01-21T15:49:18.775Z,-0.60
2018-01-21T15:51:47.831Z,-0.50
2018-01-21T15:54:16.132Z,-0.50
2018-01-21T15:56:44.445Z,-0.40
2018-01-21T15:59:12.734Z,-0.30
2018-01-21T16:01:41.201Z,-0.40
2018-01-21T16:04:10.272Z,-0.50
2018-01-21T16:06:38.613Z,-0.50
2018-01-21T16:09:07.775Z,-0.60
2018-01-21T16:11:36.082Z,-0.60
2018-01-21T16:14:04.505Z,-0.80
2018-01-21T16:16:32.808Z,-0.80
2018-01-21T16:19:01.141Z,-0.80
2018-01-21T16:21:29.431Z,-0.80
2018-01-21T16:23:57.722Z,-0.70
2018-01-21T16:26:26.050Z,-0.70
2018-01-21T16:28:54.336Z,-0.70
2018-01-21T16:31:22.682Z,-0.70
2018-01-21T16:33:51.042Z,-0.70
2018-01-21T16:36:32.046Z,-0.70
2018-01-21T16:39:01.192Z,-0.60
2018-01-21T16:41:29.760Z,-0.60
2018-01-21T16:43:58.847Z,-0.50
2018-01-21T16:46:27.160Z,-0.50
2018-01-21T16:48:56.244Z,-0.60
2018-01-21T16:51:24.537Z,-0.60
2018-01-21T16:53:52.826Z,-0.60
2018-01-21T16:56:21.110Z,-0.60
2018-01-21T16:58:49.401Z,-0.70
2018-01-21T17:01:17.770Z,-0.70
2018-01-21T17:03:46.074Z,-0.70
2018-01-21T17:06:14.370Z,-0.70
2018-01-21T17:08:42.651Z,-0.60
2018-01-21T17:11:10.967Z,-0.60
2018-01-21T17:13:40.116Z,-0.60
2018-01-21T17:16:08.423Z,-0.60
2018-01-21T17:18:36.704Z,-0.70
2018-01-21T17:21:04.990Z,-0.70
2018-01-21T17:23:34.177Z,-0.70
2018-01-21T17:26:02.496Z,-0.70
2018-01-21T17:28:30.790Z,-0.70
2018-01-21T17:30:59.075Z,-0.60
2018-01-21T17:33:27.389Z,-0.60
2018-01-21T17:35:55.673Z,-0.60
2018-01-21T17:38:24.321Z,-0.70
2018-01-21T17:40:53.413Z,-0.60
2018-01-21T17:43:22.519Z,-0.70
2018-01-21T17:45:50.930Z,-0.70
2018-01-21T17:48:19.278Z,-0.70
2018-01-21T17:50:48.506Z,-0.70
2018-01-21T17:53:16.858Z,-0.70
2018-01-21T17:55:45.206Z,-0.70
2018-01-21T17:58:14.323Z,-0.70
2018-01-21T18:00:43.388Z,-0.70
2018-01-21T18:03:11.694Z,-0.70
2018-01-21T18:05:39.987Z,-0.70
2018-01-21T18:08:08.284Z,-0.70
2018-01-21T18:10:36.709Z,-0.70
2018-01-21T18:13:05.027Z,-0.60
2018-01-21T18:15:33.447Z,-0.60
2018-01-21T18:18:01.790Z,-0.70
2018-01-21T18:20:30.083Z,-0.60
2018-01-21T18:22:58.426Z,-0.60
2018-01-21T18:25:26.715Z,-0.60
2018-01-21T18:27:55.016Z,-0.70
2018-01-21T18:30:24.078Z,-0.60
2018-01-21T18:32:52.390Z,-0.70
2018-01-21T18:35:20.703Z,-0.60
2018-01-21T18:37:49.760Z,-0.60
2018-01-21T18:40:18.043Z,-0.60
2018-01-21T18:42:46.343Z,-0.70
2018-01-21T18:45:14.677Z,-0.70
2018-01-21T18:47:43.120Z,-0.80
2018-01-21T18:50:11.471Z,-0.80
2018-01-21T18:52:40.526Z,-0.90
2018-01-21T18:55:08.811Z,-0.90
2018-01-21T18:57:37.154Z,-1.00
2018-01-21T19:00:05.596Z,-1.00
2018-01-21T19:02:33.886Z,-1.00
2018-01-21T19:05:02.203Z,-1.00
2018-01-21T19:07:31.541Z,-1.10
2018-01-21T19:09:59.919Z,-1.10
2018-01-21T19:12:29.003Z,-1.10
2018-01-21T19:14:57.313Z,-1.10
2018-01-21T19:17:25.595Z,-1.00
2018-01-21T19:19:53.962Z,-1.10
2018-01-21T19:22:22.306Z,-1.10
2018-01-21T19:24:51.390Z,-1.10
2018-01-21T19:27:19.685Z,-1.10
2018-01-21T19:29:47.985Z,-1.20
2018-01-21T19:32:16.330Z,-1.20
2018-01-21T19:34:44.626Z,-1.30
2018-01-21T19:37:12.950Z,-1.30
2018-01-21T19:42:44.512Z,-1.40
2018-01-21T19:45:13.575Z,-1.40
2018-01-21T19:47:41.910Z,-1.40
2018-01-21T19:50:10.210Z,-1.40
2018-01-21T19:52:38.512Z,-1.50
2018-01-21T19:55:06.820Z,-1.50
2018-01-21T19:57:35.132Z,-1.60
2018-01-21T20:00:03.573Z,-1.60
2018-01-21T20:02:31.906Z,-1.70
2018-01-21T20:05:00.198Z,-1.60
2018-01-21T20:07:28.479Z,-1.60
2018-01-21T20:09:56.778Z,-1.60
2018-01-21T20:12:25.119Z,-1.50
2018-01-21T20:14:53.414Z,-1.50
2018-01-21T20:17:21.714Z,-1.50
2018-01-21T20:19:50.009Z,-1.50
2018-01-21T20:22:18.312Z,-1.40
2018-01-21T20:24:46.635Z,-1.40
2018-01-21T20:27:15.693Z,-1.40
2018-01-21T20:29:43.981Z,-1.40
2018-01-21T20:32:12.313Z,-1.50
2018-01-21T20:34:40.634Z,-1.50
2018-01-21T20:37:08.946Z,-1.60
2018-01-21T20:39:38.706Z,-1.80
2018-01-21T20:42:07.023Z,-1.80
2018-01-21T20:44:35.349Z,-1.90
2018-01-21T20:47:03.699Z,-1.90
2018-01-21T20:49:32.151Z,-2.00
2018-01-21T20:52:06.163Z,-1.90
2018-01-21T20:54:40.242Z,-1.90
2018-01-21T20:57:09.342Z,-1.90
2018-01-21T20:59:38.411Z,-1.80
2018-01-21T21:02:06.754Z,-1.80
2018-01-21T21:04:35.843Z,-1.80
2018-01-21T21:07:04.199Z,-1.80
2018-01-21T21:09:32.508Z,-1.80
2018-01-21T21:12:01.042Z,-1.80
2018-01-21T21:14:30.130Z,-1.70
2018-01-21T21:16:58.441Z,-1.70
2018-01-21T21:19:27.517Z,-1.80
2018-01-21T21:21:55.927Z,-1.80
2018-01-21T21:24:24.983Z,-1.70
2018-01-21T21:26:53.282Z,-1.70
2018-01-21T21:29:21.589Z,-1.60
2018-01-21T21:31:49.899Z,-1.50
2018-01-21T21:34:18.268Z,-1.50
2018-01-21T21:36:46.580Z,-1.50
2018-01-21T21:39:14.919Z,-1.40
2018-01-21T21:41:43.210Z,-1.30
2018-01-21T21:44:11.541Z,-1.30
2018-01-21T21:46:39.863Z,-1.30
2018-01-21T21:49:08.992Z,-1.20
2018-01-21T21:51:37.287Z,-1.20
2018-01-21T21:54:05.620Z,-1.20
2018-01-21T21:56:33.907Z,-1.20
2018-01-21T21:59:02.240Z,-1.20
2018-01-21T22:01:30.555Z,-1.20
2018-01-21T22:03:58.877Z,-1.20
2018-01-21T22:06:27.220Z,-1.20
2018-01-21T22:08:55.522Z,-1.20
2018-01-21T22:11:23.845Z,-1.20
2018-01-21T22:13:52.152Z,-1.20
2018-01-21T22:16:20.446Z,-1.20
2018-01-21T22:18:48.750Z,-1.20
2018-01-21T22:21:18.034Z,-1.10
2018-01-21T22:23:46.447Z,-1.10
2018-01-21T22:26:14.740Z,-1.10
2018-01-21T22:28:43.074Z,-1.10
2018-01-21T22:31:11.359Z,-1.20
2018-01-21T22:33:39.654Z,-1.20
2018-01-21T22:36:07.978Z,-1.10
2018-01-21T22:38:36.303Z,-1.20
2018-01-21T22:41:05.364Z,-1.20
2018-01-21T22:43:33.686Z,-1.20
2018-01-21T22:46:02.023Z,-1.20
2018-01-21T22:48:30.375Z,-1.20
2018-01-21T22:50:59.437Z,-1.20
2018-01-21T22:53:27.730Z,-1.20
2018-01-21T22:55:56.020Z,-1.20
2018-01-21T22:58:24.310Z,-1.20
2018-01-21T23:00:52.626Z,-1.30
2018-01-21T23:03:20.954Z,-1.30
2018-01-21T23:05:50.014Z,-1.20
2018-01-21T23:08:18.515Z,-1.30
2018-01-21T23:10:46.798Z,-1.30
2018-01-21T23:13:15.122Z,-1.20
2018-01-21T23:15:44.208Z,-1.20
2018-01-21T23:18:12.490Z,-1.20
2018-01-21T23:20:52.658Z,-1.20
2018-01-21T23:23:22.730Z,-1.30
2018-01-21T23:25:51.810Z,-1.30
2018-01-21T23:28:20.099Z,-1.30
2018-01-21T23:30:48.399Z,-1.30
2018-01-21T23:33:16.710Z,-1.30
2018-01-21T23:35:45.788Z,-1.30
2018-01-21T23:38:14.111Z,-1.30
2018-01-21T23:40:42.443Z,-1.30
2018-01-21T23:43:10.730Z,-1.30
2018-01-21T23:45:39.060Z,-1.30
2018-01-21T23:48:07.358Z,-1.30
2018-01-21T23:50:35.682Z,-1.30
2018-01-21T23:53:03.985Z,-1.30
2018-01-21T23:55:33.064Z,-1.30
2018-01-21T23:58:01.369Z,-1.30
